Chichen Itza International Airport


Codes: MMCT/CZA
Name: Chichen Itza International Airport
City: Chichen Itza
Country: Mexico
Elevation: 102 ft.
Website:
Wikipedia:

Photos at Chichen Itza International Airport


   Photos courtesy of SpottingLog. You can add your own sightings and photos by signing up for a free trial today.



No photos found.

Weather at Chichen Itza International Airport


Time (UTC)DescriptionTempratureWindCloud coverageVisibilityPressureHumidity
26-Jun-2024 00:00Overcast Clouds34°C4 mph, SE97%10000m1011hPa43%
26-Jun-2024 03:00Overcast Clouds29°C2 mph, E98%10000m1013hPa70%
26-Jun-2024 06:00Overcast Clouds24°C2 mph, SE99%10000m1014hPa99%
26-Jun-2024 09:00Overcast Clouds23°C2 mph, SE98%10000m1012hPa100%
26-Jun-2024 12:00Overcast Clouds24°C0 mph, SE93%10000m1014hPa98%
26-Jun-2024 15:00Light Rain31°C4 mph, SE79%10000m1014hPa64%
26-Jun-2024 18:00Overcast Clouds35°C4 mph, E85%10000m1013hPa44%
26-Jun-2024 21:00Overcast Clouds36°C7 mph, E97%10000m1011hPa38%
27-Jun-2024 00:00Overcast Clouds31°C7 mph, SE90%10000m1011hPa59%
27-Jun-2024 03:00Broken Clouds26°C4 mph, SE67%10000m1012hPa86%
27-Jun-2024 06:00Broken Clouds25°C4 mph, SE83%10000m1012hPa95%
27-Jun-2024 09:00Overcast Clouds24°C2 mph, SE100%10000m1011hPa100%
27-Jun-2024 12:00Overcast Clouds24°C0 mph, SE99%10000m1012hPa98%
27-Jun-2024 15:00Overcast Clouds31°C4 mph, SE100%10000m1013hPa59%
27-Jun-2024 18:00Overcast Clouds35°C7 mph, SE100%10000m1011hPa40%
27-Jun-2024 21:00Overcast Clouds35°C7 mph, SE100%10000m1009hPa41%
28-Jun-2024 00:00Overcast Clouds31°C7 mph, SE100%10000m1010hPa54%
28-Jun-2024 03:00Overcast Clouds26°C4 mph, SE97%10000m1011hPa79%
28-Jun-2024 06:00Overcast Clouds25°C4 mph, SE95%10000m1011hPa89%
28-Jun-2024 09:00Broken Clouds25°C4 mph, E71%10000m1010hPa93%
28-Jun-2024 12:00Broken Clouds25°C2 mph, E59%10000m1011hPa94%
28-Jun-2024 15:00Broken Clouds31°C7 mph, SE75%10000m1012hPa63%
28-Jun-2024 18:00Light Rain33°C7 mph, SE85%10000m1010hPa52%
28-Jun-2024 21:00Light Rain34°C9 mph, SE100%10000m1009hPa46%
29-Jun-2024 00:00Overcast Clouds28°C7 mph, SE100%10000m1011hPa69%
29-Jun-2024 03:00Overcast Clouds25°C7 mph, E100%10000m1013hPa82%
29-Jun-2024 06:00Overcast Clouds25°C7 mph, E99%10000m1013hPa79%
29-Jun-2024 09:00Overcast Clouds25°C9 mph, E100%10000m1012hPa70%
29-Jun-2024 12:00Light Rain24°C9 mph, SE100%10000m1013hPa76%
29-Jun-2024 15:00Overcast Clouds28°C9 mph, SE100%10000m1014hPa62%
29-Jun-2024 18:00Overcast Clouds25°C7 mph, SE100%10000m1015hPa70%
29-Jun-2024 21:00Overcast Clouds27°C9 mph, SE100%10000m1014hPa70%
30-Jun-2024 00:00Overcast Clouds25°C7 mph, E100%10000m1015hPa78%
30-Jun-2024 03:00Overcast Clouds24°C7 mph, E100%10000m1016hPa81%
30-Jun-2024 06:00Light Rain22°C2 mph, E100%10000m1015hPa90%
30-Jun-2024 09:00Light Rain21°C2 mph, NE100%10000m1014hPa96%
30-Jun-2024 12:00Overcast Clouds22°C2 mph, NE100%10000m1015hPa90%
30-Jun-2024 15:00Overcast Clouds30°C7 mph, E100%10000m1016hPa60%
30-Jun-2024 18:00Overcast Clouds35°C7 mph, SE100%10000m1014hPa38%
30-Jun-2024 21:00Overcast Clouds33°C4 mph, E100%10000m1012hPa43%